createdAt,value
2019-04-27T00:03:06.203Z,23.14
2019-04-27T00:08:35.610Z,23.15
2019-04-27T00:13:40.517Z,23.15
2019-04-27T00:19:13.122Z,23.15
2019-04-27T00:24:18.225Z,23.14
2019-04-27T00:29:23.612Z,23.15
2019-04-27T00:34:28.055Z,23.14
2019-04-27T00:39:38.946Z,23.13
2019-04-27T00:44:43.147Z,23.13
2019-04-27T00:49:47.293Z,23.11
2019-04-27T00:54:51.359Z,23.14
2019-04-27T01:00:13.482Z,23.14
2019-04-27T01:05:25.607Z,23.11
2019-04-27T01:10:29.605Z,23.12
2019-04-27T01:15:34.258Z,23.03
2019-04-27T01:20:38.785Z,23.12
2019-04-27T01:26:02.470Z,23.11
2019-04-27T01:31:09.267Z,23.11
2019-04-27T01:36:13.334Z,23.08
2019-04-27T01:41:19.210Z,23.09
2019-04-27T01:46:23.542Z,23.06
2019-04-27T01:51:29.313Z,23.06
2019-04-27T01:56:33.758Z,23.05
2019-04-27T02:01:54.422Z,23.02
2019-04-27T02:06:59.757Z,23.02
2019-04-27T02:12:03.963Z,22.99
2019-04-27T02:17:09.581Z,22.97
2019-04-27T02:22:13.763Z,22.96
2019-04-27T02:27:19.540Z,22.94
2019-04-27T02:32:40.888Z,22.93
2019-04-27T02:37:44.906Z,22.91
2019-04-27T02:42:50.378Z,22.90
2019-04-27T02:47:55.345Z,22.90
2019-04-27T02:52:59.917Z,22.86
2019-04-27T02:58:05.158Z,22.86
2019-04-27T03:03:11.061Z,22.84
2019-04-27T03:08:15.203Z,22.78
2019-04-27T03:13:26.862Z,22.83
2019-04-27T03:18:40.474Z,22.80
2019-04-27T03:23:44.683Z,22.81
2019-04-27T03:28:50.235Z,22.82
2019-04-27T03:33:59.118Z,22.82
2019-04-27T03:39:00.615Z,22.84
2019-04-27T03:44:04.898Z,22.85
2019-04-27T03:49:09.790Z,22.87
2019-04-27T03:54:36.233Z,22.89
2019-04-27T04:00:00.118Z,22.90
2019-04-27T04:05:04.812Z,22.91
2019-04-27T04:10:10.806Z,22.93
2019-04-27T04:15:23.905Z,22.93
2019-04-27T04:20:30.284Z,22.93
2019-04-27T04:25:33.682Z,22.92
2019-04-27T04:30:40.168Z,22.92
2019-04-27T04:35:44.630Z,23.04
2019-04-27T04:40:55.194Z,22.99
2019-04-27T04:46:19.500Z,22.98
2019-04-27T04:51:22.557Z,22.96
2019-04-27T04:56:26.684Z,22.98
2019-04-27T05:01:30.889Z,22.90
2019-04-27T05:06:35.073Z,23.00
2019-04-27T05:11:39.662Z,23.00
2019-04-27T05:16:43.738Z,23.03
2019-04-27T05:21:49.321Z,23.04
2019-04-27T05:26:53.399Z,23.04
2019-04-27T05:31:59.227Z,22.94
2019-04-27T05:37:03.356Z,23.05
2019-04-27T05:42:12.471Z,23.05
2019-04-27T05:47:32.094Z,23.07
2019-04-27T05:52:36.113Z,23.07
2019-04-27T05:57:40.236Z,23.11
2019-04-27T06:02:44.397Z,23.11
2019-04-27T06:07:48.838Z,23.11
2019-04-27T06:13:02.527Z,23.12
2019-04-27T06:18:06.609Z,23.03
2019-04-27T06:23:10.688Z,23.13
2019-04-27T06:28:14.851Z,23.15
2019-04-27T06:33:30.051Z,23.15
2019-04-27T06:38:24.697Z,23.15
2019-04-27T06:43:29.394Z,23.16
2019-04-27T06:48:33.504Z,23.17
2019-04-27T06:53:39.321Z,23.19
2019-04-27T06:58:43.282Z,19.90
2019-04-27T07:03:48.664Z,19.05
2019-04-27T07:08:55.185Z,18.88
2019-04-27T07:13:59.441Z,18.88
2019-04-27T07:19:03.803Z,21.73
2019-04-27T07:24:08.978Z,21.94
2019-04-27T07:29:13.168Z,22.24
2019-04-27T07:34:18.787Z,22.38
2019-04-27T07:39:22.999Z,22.41
2019-04-27T07:44:35.572Z,22.40
2019-04-27T07:49:39.567Z,22.47
2019-04-27T07:54:45.027Z,22.45
2019-04-27T07:59:50.182Z,22.39
2019-04-27T08:04:54.395Z,22.45
2019-04-27T08:10:01.087Z,22.45
2019-04-27T08:15:04.597Z,22.60
2019-04-27T08:20:09.273Z,22.61
2019-04-27T08:25:13.605Z,22.63
2019-04-27T08:30:34.592Z,22.63
2019-04-27T08:35:38.900Z,22.64
2019-04-27T08:40:44.488Z,22.60
2019-04-27T08:45:48.906Z,22.69
2019-04-27T08:50:52.976Z,22.68
2019-04-27T08:55:56.968Z,22.62
2019-04-27T09:01:01.280Z,22.54
2019-04-27T09:06:09.124Z,22.65
2019-04-27T09:11:31.045Z,22.74
2019-04-27T09:17:06.277Z,22.71
2019-04-27T09:22:15.951Z,22.77
2019-04-27T09:27:17.949Z,22.77
2019-04-27T09:32:21.867Z,22.75
2019-04-27T09:37:27.431Z,22.84
2019-04-27T09:42:31.637Z,22.88
2019-04-27T09:47:38.840Z,22.87
2019-04-27T09:52:41.678Z,22.83
2019-04-27T09:57:46.525Z,22.82
2019-04-27T10:02:50.615Z,22.82
2019-04-27T10:07:54.628Z,22.85
2019-04-27T10:12:58.624Z,22.88
2019-04-27T10:18:02.775Z,23.07
2019-04-27T10:23:06.804Z,23.15
2019-04-27T10:28:10.922Z,23.19
2019-04-27T10:33:16.131Z,23.10
2019-04-27T10:38:20.531Z,23.20
2019-04-27T10:43:25.771Z,21.56
2019-04-27T10:48:29.930Z,21.05
2019-04-27T10:53:35.561Z,20.91
2019-04-27T10:58:40.158Z,20.91
2019-04-27T11:04:10.121Z,22.64
2019-04-27T11:09:16.179Z,22.64
2019-04-27T11:14:20.275Z,22.88
2019-04-27T11:19:24.268Z,22.90
2019-04-27T11:24:28.809Z,22.98
2019-04-27T11:29:32.827Z,22.89
2019-04-27T11:34:55.865Z,22.89
2019-04-27T11:39:59.975Z,22.94
2019-04-27T11:45:06.463Z,22.93
2019-04-27T11:50:11.004Z,23.10
2019-04-27T11:55:16.203Z,23.02
2019-04-27T12:00:23.300Z,23.02
2019-04-27T12:05:27.462Z,22.95
2019-04-27T12:10:31.476Z,22.84
2019-04-27T12:15:36.196Z,22.84
2019-04-27T12:20:40.490Z,22.98
2019-04-27T12:25:46.097Z,22.98
2019-04-27T12:31:00.158Z,23.03
2019-04-27T12:36:04.457Z,23.05
2019-04-27T12:41:08.592Z,23.00
2019-04-27T12:46:12.604Z,23.01
2019-04-27T12:51:16.854Z,22.92
2019-04-27T12:56:27.995Z,22.89
2019-04-27T13:01:32.062Z,22.88
2019-04-27T13:06:37.424Z,22.88
2019-04-27T13:11:41.528Z,23.01
2019-04-27T13:16:45.677Z,22.96
2019-04-27T13:21:51.498Z,23.03
2019-04-27T13:26:55.986Z,23.03
2019-04-27T13:32:00.368Z,23.13
2019-04-27T13:37:06.551Z,23.18
2019-04-27T13:42:10.630Z,22.85
2019-04-27T13:47:21.421Z,22.87
2019-04-27T13:52:29.888Z,22.85
2019-04-27T13:57:33.377Z,22.88
2019-04-27T14:02:37.393Z,22.88
2019-04-27T14:07:41.832Z,22.88
2019-04-27T14:12:45.842Z,22.88
2019-04-27T14:17:50.116Z,22.98
2019-04-27T14:22:57.880Z,22.98
2019-04-27T14:28:02.027Z,22.99
2019-04-27T14:33:06.142Z,22.94
2019-04-27T14:38:10.323Z,21.80
2019-04-27T14:43:14.451Z,22.66
2019-04-27T14:48:18.619Z,22.99
2019-04-27T14:53:22.600Z,22.99
2019-04-27T14:58:28.152Z,23.15
2019-04-27T15:03:32.371Z,23.13
2019-04-27T15:08:38.256Z,23.18
2019-04-27T15:13:45.932Z,23.23
2019-04-27T15:18:52.714Z,23.13
2019-04-27T15:23:56.777Z,23.21
2019-04-27T15:29:02.832Z,23.22
2019-04-27T15:34:41.873Z,23.22
2019-04-27T15:40:09.953Z,23.15
2019-04-27T15:45:15.837Z,23.13
2019-04-27T15:50:23.436Z,23.13
2019-04-27T15:55:34.721Z,23.08
2019-04-27T16:00:31.550Z,22.84
2019-04-27T16:05:36.070Z,22.87
2019-04-27T16:10:40.388Z,22.83
2019-04-27T16:15:49.077Z,22.98
2019-04-27T16:20:50.527Z,22.82
2019-04-27T16:25:54.532Z,22.72
2019-04-27T16:30:58.559Z,22.70
2019-04-27T16:36:06.878Z,22.70
2019-04-27T16:41:09.216Z,22.69
2019-04-27T16:46:13.213Z,22.68
2019-04-27T16:51:18.330Z,22.65
2019-04-27T16:56:24.525Z,22.66
2019-04-27T17:01:30.360Z,22.66
2019-04-27T17:07:41.842Z,22.65
2019-04-27T17:12:46.048Z,22.61
2019-04-27T17:17:59.910Z,22.61
2019-04-27T17:23:03.906Z,22.54
2019-04-27T17:28:13.480Z,22.34
2019-04-27T17:33:25.819Z,22.37
2019-04-27T17:38:30.467Z,22.31
2019-04-27T17:43:37.468Z,22.34
2019-04-27T17:48:40.367Z,22.35
2019-04-27T17:53:44.465Z,22.32
2019-04-27T17:58:48.767Z,22.33
2019-04-27T18:03:58.845Z,22.30
2019-04-27T18:09:00.702Z,22.49
2019-04-27T18:14:04.722Z,22.49
2019-04-27T18:19:20.770Z,22.52
2019-04-27T18:24:29.014Z,22.52
2019-04-27T18:29:32.694Z,22.57
2019-04-27T18:34:38.942Z,22.57
2019-04-27T18:39:45.459Z,22.57
2019-04-27T18:44:48.798Z,22.56
2019-04-27T18:50:14.751Z,22.55
2019-04-27T18:55:20.025Z,22.55
2019-04-27T19:00:23.114Z,22.54
2019-04-27T19:05:37.951Z,22.54
2019-04-27T19:10:33.044Z,22.53
2019-04-27T19:15:38.522Z,22.53
2019-04-27T19:20:42.747Z,22.50
2019-04-27T19:26:04.605Z,22.50
2019-04-27T19:31:13.752Z,22.40
2019-04-27T19:36:19.204Z,22.44
2019-04-27T19:41:23.242Z,22.52
2019-04-27T19:46:28.809Z,22.52
2019-04-27T19:51:33.107Z,22.63
2019-04-27T19:56:38.369Z,22.63
2019-04-27T20:01:48.117Z,22.62
2019-04-27T20:06:52.327Z,22.67
2019-04-27T20:11:56.488Z,22.67
2019-04-27T20:17:00.475Z,22.70
2019-04-27T20:22:04.625Z,22.71
2019-04-27T20:27:10.807Z,22.77
2019-04-27T20:32:14.845Z,22.75
2019-04-27T20:37:20.914Z,22.77
2019-04-27T20:42:24.981Z,22.78
2019-04-27T20:47:29.118Z,22.78
2019-04-27T20:53:01.324Z,22.82
2019-04-27T20:58:05.436Z,22.85
2019-04-27T21:03:18.792Z,22.84
2019-04-27T21:08:23.589Z,22.86
2019-04-27T21:13:27.679Z,22.86
2019-04-27T21:18:31.938Z,22.89
2019-04-27T21:23:36.009Z,22.89
2019-04-27T21:28:42.988Z,22.90
2019-04-27T21:33:46.051Z,22.83
2019-04-27T21:38:51.275Z,22.93
2019-04-27T21:43:55.543Z,22.93
2019-04-27T21:48:59.632Z,22.94
2019-04-27T21:54:16.091Z,22.95
2019-04-27T21:59:21.091Z,22.96
2019-04-27T22:04:25.317Z,22.98
2019-04-27T22:09:29.379Z,22.98
2019-04-27T22:14:33.563Z,22.98
2019-04-27T22:19:37.714Z,22.98
2019-04-27T22:24:43.081Z,23.00
2019-04-27T22:29:47.540Z,23.00
2019-04-27T22:34:51.784Z,23.01
2019-04-27T22:40:13.517Z,23.03
2019-04-27T22:45:24.847Z,23.04
2019-04-27T22:50:28.986Z,23.02
2019-04-27T22:55:33.095Z,23.02
2019-04-27T23:00:51.387Z,23.04
2019-04-27T23:05:55.558Z,23.04
2019-04-27T23:11:00.560Z,23.04
2019-04-27T23:16:07.383Z,23.03
2019-04-27T23:21:11.834Z,23.03
2019-04-27T23:26:15.982Z,23.02
2019-04-27T23:31:52.715Z,23.03
2019-04-27T23:36:56.932Z,23.04
2019-04-27T23:42:01.718Z,23.03
2019-04-27T23:47:06.974Z,23.04
2019-04-27T23:52:16.139Z,23.04
2019-04-27T23:57:21.794Z,23.05
